sensor_id;sensor_type;location;lat;lon;timestamp;P1;durP1;ratioP1;P2;durP2;ratioP2
18259;SDS011;9256;52.236;5.712;2023-03-03T14:19:31;8.60;;;2.90;;
18259;SDS011;9256;52.236;5.712;2023-03-03T14:22:03;4.72;;;2.17;;
18259;SDS011;9256;52.236;5.712;2023-03-03T14:27:23;8.18;;;2.60;;
18259;SDS011;9256;52.236;5.712;2023-03-03T14:29:51;10.00;;;2.70;;
18259;SDS011;9256;52.236;5.712;2023-03-03T14:32:22;4.57;;;2.17;;
18259;SDS011;9256;52.236;5.712;2023-03-03T14:34:57;4.38;;;1.95;;
18259;SDS011;9256;52.236;5.712;2023-03-03T14:37:41;4.20;;;1.70;;
18259;SDS011;9256;52.236;5.712;2023-03-03T14:40:14;5.05;;;1.67;;
18259;SDS011;9256;52.236;5.712;2023-03-03T14:42:47;6.93;;;1.95;;
18259;SDS011;9256;52.236;5.712;2023-03-03T14:45:20;5.35;;;1.70;;
18259;SDS011;9256;52.236;5.712;2023-03-03T14:47:55;3.03;;;1.50;;
18259;SDS011;9256;52.236;5.712;2023-03-03T14:50:37;4.60;;;1.60;;
18259;SDS011;9256;52.236;5.712;2023-03-03T14:53:12;5.13;;;2.00;;
18259;SDS011;9256;52.236;5.712;2023-03-03T14:55:41;6.60;;;1.70;;
18259;SDS011;9256;52.236;5.712;2023-03-03T14:58:29;5.22;;;1.48;;
18259;SDS011;9256;52.236;5.712;2023-03-03T15:01:06;2.72;;;1.10;;
18259;SDS011;9256;52.236;5.712;2023-03-03T15:03:42;3.40;;;1.38;;
18259;SDS011;9256;52.236;5.712;2023-03-03T15:06:13;2.55;;;1.17;;
18259;SDS011;9256;52.236;5.712;2023-03-03T15:12:02;2.65;;;1.17;;
18259;SDS011;9256;52.236;5.712;2023-03-03T15:14:44;1.95;;;1.02;;
18259;SDS011;9256;52.236;5.712;2023-03-03T15:17:16;1.70;;;1.17;;
18259;SDS011;9256;52.236;5.712;2023-03-03T15:19:50;2.22;;;1.05;;
18259;SDS011;9256;52.236;5.712;2023-03-03T15:22:42;3.63;;;1.00;;
18259;SDS011;9256;52.236;5.712;2023-03-03T15:25:14;2.72;;;0.90;;
18259;SDS011;9256;52.236;5.712;2023-03-03T15:27:48;4.97;;;0.85;;
18259;SDS011;9256;52.236;5.712;2023-03-03T15:30:21;3.72;;;0.93;;
18259;SDS011;9256;52.236;5.712;2023-03-03T15:32:56;1.67;;;0.90;;
18259;SDS011;9256;52.236;5.712;2023-03-03T15:35:30;3.67;;;1.05;;
18259;SDS011;9256;52.236;5.712;2023-03-03T15:38:09;1.95;;;0.80;;
18259;SDS011;9256;52.236;5.712;2023-03-03T15:40:50;3.55;;;0.88;;
18259;SDS011;9256;52.236;5.712;2023-03-03T15:43:21;4.85;;;0.80;;
18259;SDS011;9256;52.236;5.712;2023-03-03T15:46:00;5.30;;;1.00;;
18259;SDS011;9256;52.236;5.712;2023-03-03T15:48:38;3.47;;;0.80;;
18259;SDS011;9256;52.236;5.712;2023-03-03T15:51:17;5.88;;;0.95;;
18259;SDS011;9256;52.236;5.712;2023-03-03T15:54:12;1.90;;;0.80;;
18259;SDS011;9256;52.236;5.712;2023-03-03T15:56:52;3.25;;;0.82;;
18259;SDS011;9256;52.236;5.712;2023-03-03T16:02:32;3.90;;;0.77;;
18259;SDS011;9256;52.236;5.712;2023-03-03T16:05:12;3.35;;;0.60;;
18259;SDS011;9256;52.236;5.712;2023-03-03T16:07:45;4.25;;;0.80;;
18259;SDS011;9256;52.236;5.712;2023-03-03T16:10:26;1.75;;;0.50;;
18259;SDS011;9256;52.236;5.712;2023-03-03T16:13:03;5.18;;;0.63;;
18259;SDS011;9256;52.236;5.712;2023-03-03T16:15:47;3.47;;;1.40;;
18259;SDS011;9256;52.236;5.712;2023-03-03T16:18:25;4.43;;;0.60;;
18259;SDS011;9256;52.236;5.712;2023-03-03T16:21:06;2.75;;;0.68;;
18259;SDS011;9256;52.236;5.712;2023-03-03T16:23:45;3.45;;;0.80;;
18259;SDS011;9256;52.236;5.712;2023-03-03T16:26:21;5.90;;;0.68;;
18259;SDS011;9256;52.236;5.712;2023-03-03T16:29:07;4.60;;;0.80;;
18259;SDS011;9256;52.236;5.712;2023-03-03T16:31:44;4.70;;;0.77;;
18259;SDS011;9256;52.236;5.712;2023-03-03T16:34:17;5.93;;;1.45;;
18259;SDS011;9256;52.236;5.712;2023-03-03T16:36:51;2.50;;;0.68;;
18259;SDS011;9256;52.236;5.712;2023-03-03T16:39:27;2.30;;;0.90;;
18259;SDS011;9256;52.236;5.712;2023-03-03T16:42:06;5.75;;;1.05;;
18259;SDS011;9256;52.236;5.712;2023-03-03T16:44:46;3.70;;;1.00;;
18259;SDS011;9256;52.236;5.712;2023-03-03T16:47:25;5.93;;;0.70;;
18259;SDS011;9256;52.236;5.712;2023-03-03T16:50:04;2.43;;;0.80;;
18259;SDS011;9256;52.236;5.712;2023-03-03T16:52:40;4.23;;;0.77;;
18259;SDS011;9256;52.236;5.712;2023-03-03T16:55:13;3.10;;;0.70;;
18259;SDS011;9256;52.236;5.712;2023-03-03T16:57:47;4.93;;;0.67;;
18259;SDS011;9256;52.236;5.712;2023-03-03T17:00:26;4.73;;;1.10;;
18259;SDS011;9256;52.236;5.712;2023-03-03T17:05:59;7.93;;;0.80;;
18259;SDS011;9256;52.236;5.712;2023-03-03T17:11:36;11.20;;;1.25;;
18259;SDS011;9256;52.236;5.712;2023-03-03T17:14:24;6.07;;;0.80;;
18259;SDS011;9256;52.236;5.712;2023-03-03T17:17:10;5.30;;;0.80;;
18259;SDS011;9256;52.236;5.712;2023-03-03T17:19:52;8.70;;;1.13;;
18259;SDS011;9256;52.236;5.712;2023-03-03T17:22:31;7.70;;;0.90;;
18259;SDS011;9256;52.236;5.712;2023-03-03T17:25:08;9.37;;;1.20;;
18259;SDS011;9256;52.236;5.712;2023-03-03T17:27:50;6.70;;;1.48;;
18259;SDS011;9256;52.236;5.712;2023-03-03T17:30:28;13.20;;;1.50;;
18259;SDS011;9256;52.236;5.712;2023-03-03T17:33:14;12.57;;;1.30;;
18259;SDS011;9256;52.236;5.712;2023-03-03T17:35:55;11.77;;;2.50;;
18259;SDS011;9256;52.236;5.712;2023-03-03T17:38:35;35.53;;;7.30;;
18259;SDS011;9256;52.236;5.712;2023-03-03T17:41:12;17.23;;;4.07;;
18259;SDS011;9256;52.236;5.712;2023-03-03T17:43:47;20.20;;;4.27;;
18259;SDS011;9256;52.236;5.712;2023-03-03T17:46:27;50.65;;;13.00;;
18259;SDS011;9256;52.236;5.712;2023-03-03T17:49:03;13.43;;;2.20;;
18259;SDS011;9256;52.236;5.712;2023-03-03T17:51:51;13.73;;;2.87;;
18259;SDS011;9256;52.236;5.712;2023-03-03T17:54:42;10.67;;;1.90;;
18259;SDS011;9256;52.236;5.712;2023-03-03T17:57:33;21.77;;;4.00;;
18259;SDS011;9256;52.236;5.712;2023-03-03T18:00:15;18.60;;;1.70;;
18259;SDS011;9256;52.236;5.712;2023-03-03T18:03:13;12.83;;;2.50;;
18259;SDS011;9256;52.236;5.712;2023-03-03T18:06:07;16.43;;;1.63;;
18259;SDS011;9256;52.236;5.712;2023-03-03T18:08:48;16.57;;;2.37;;
18259;SDS011;9256;52.236;5.712;2023-03-03T18:11:38;14.70;;;1.90;;
18259;SDS011;9256;52.236;5.712;2023-03-03T18:14:16;13.53;;;0.90;;
18259;SDS011;9256;52.236;5.712;2023-03-03T18:17:00;14.63;;;1.10;;
18259;SDS011;9256;52.236;5.712;2023-03-03T18:19:50;15.43;;;2.07;;
18259;SDS011;9256;52.236;5.712;2023-03-03T18:22:41;16.40;;;3.67;;
18259;SDS011;9256;52.236;5.712;2023-03-03T18:25:09;12.60;;;2.03;;
18259;SDS011;9256;52.236;5.712;2023-03-03T18:27:38;11.37;;;1.50;;
18259;SDS011;9256;52.236;5.712;2023-03-03T18:30:25;18.97;;;1.70;;
18259;SDS011;9256;52.236;5.712;2023-03-03T18:33:11;41.00;;;9.03;;
18259;SDS011;9256;52.236;5.712;2023-03-03T18:35:41;11.27;;;1.70;;
18259;SDS011;9256;52.236;5.712;2023-03-03T18:38:22;18.23;;;2.30;;
18259;SDS011;9256;52.236;5.712;2023-03-03T18:40:57;15.63;;;2.33;;
18259;SDS011;9256;52.236;5.712;2023-03-03T18:49:16;18.58;;;2.92;;
18259;SDS011;9256;52.236;5.712;2023-03-03T18:51:51;18.30;;;3.57;;
18259;SDS011;9256;52.236;5.712;2023-03-03T18:54:41;20.77;;;3.37;;
18259;SDS011;9256;52.236;5.712;2023-03-03T18:57:12;16.57;;;2.30;;
18259;SDS011;9256;52.236;5.712;2023-03-03T18:59:53;20.03;;;2.97;;
18259;SDS011;9256;52.236;5.712;2023-03-03T19:02:32;32.55;;;5.50;;
18259;SDS011;9256;52.236;5.712;2023-03-03T19:05:16;38.47;;;6.85;;
18259;SDS011;9256;52.236;5.712;2023-03-03T19:10:50;20.70;;;2.67;;
18259;SDS011;9256;52.236;5.712;2023-03-03T19:16:35;16.00;;;2.40;;
18259;SDS011;9256;52.236;5.712;2023-03-03T19:19:12;19.10;;;2.60;;
18259;SDS011;9256;52.236;5.712;2023-03-03T19:21:41;22.02;;;5.20;;
18259;SDS011;9256;52.236;5.712;2023-03-03T19:24:27;14.00;;;2.90;;
18259;SDS011;9256;52.236;5.712;2023-03-03T19:27:02;18.90;;;2.97;;
18259;SDS011;9256;52.236;5.712;2023-03-03T19:35:27;41.90;;;7.77;;
18259;SDS011;9256;52.236;5.712;2023-03-03T19:38:05;21.73;;;4.73;;
18259;SDS011;9256;52.236;5.712;2023-03-03T19:40:47;20.77;;;5.83;;
18259;SDS011;9256;52.236;5.712;2023-03-03T19:43:23;17.27;;;3.05;;
18259;SDS011;9256;52.236;5.712;2023-03-03T19:46:00;9.67;;;1.40;;
18259;SDS011;9256;52.236;5.712;2023-03-03T19:48:42;18.37;;;1.67;;
18259;SDS011;9256;52.236;5.712;2023-03-03T19:51:19;20.67;;;2.57;;
18259;SDS011;9256;52.236;5.712;2023-03-03T19:53:54;12.23;;;2.27;;
18259;SDS011;9256;52.236;5.712;2023-03-03T19:56:34;19.30;;;3.33;;
18259;SDS011;9256;52.236;5.712;2023-03-03T19:59:14;16.43;;;2.80;;
18259;SDS011;9256;52.236;5.712;2023-03-03T20:02:01;14.50;;;2.00;;
18259;SDS011;9256;52.236;5.712;2023-03-03T20:04:43;13.67;;;2.10;;
18259;SDS011;9256;52.236;5.712;2023-03-03T20:07:22;16.33;;;2.30;;
18259;SDS011;9256;52.236;5.712;2023-03-03T20:09:57;18.77;;;3.92;;
18259;SDS011;9256;52.236;5.712;2023-03-03T20:12:38;16.40;;;3.63;;
18259;SDS011;9256;52.236;5.712;2023-03-03T20:15:18;20.03;;;4.30;;
18259;SDS011;9256;52.236;5.712;2023-03-03T20:18:12;24.00;;;7.17;;
18259;SDS011;9256;52.236;5.712;2023-03-03T20:20:58;15.65;;;3.30;;
18259;SDS011;9256;52.236;5.712;2023-03-03T20:23:33;12.88;;;2.53;;
18259;SDS011;9256;52.236;5.712;2023-03-03T20:26:11;11.30;;;2.10;;
18259;SDS011;9256;52.236;5.712;2023-03-03T20:29:05;18.73;;;4.87;;
18259;SDS011;9256;52.236;5.712;2023-03-03T20:31:47;21.40;;;4.23;;
18259;SDS011;9256;52.236;5.712;2023-03-03T20:34:21;18.40;;;2.70;;
18259;SDS011;9256;52.236;5.712;2023-03-03T20:36:59;20.30;;;2.90;;
18259;SDS011;9256;52.236;5.712;2023-03-03T20:39:35;12.20;;;2.30;;
18259;SDS011;9256;52.236;5.712;2023-03-03T20:42:11;16.77;;;1.97;;
18259;SDS011;9256;52.236;5.712;2023-03-03T20:44:51;21.57;;;1.80;;
18259;SDS011;9256;52.236;5.712;2023-03-03T20:47:30;20.80;;;2.80;;
18259;SDS011;9256;52.236;5.712;2023-03-03T20:50:10;15.83;;;4.30;;
18259;SDS011;9256;52.236;5.712;2023-03-03T20:52:51;21.33;;;3.67;;
18259;SDS011;9256;52.236;5.712;2023-03-03T20:55:33;14.20;;;2.17;;
18259;SDS011;9256;52.236;5.712;2023-03-03T20:58:10;26.73;;;5.43;;
18259;SDS011;9256;52.236;5.712;2023-03-03T21:00:45;24.33;;;4.97;;
18259;SDS011;9256;52.236;5.712;2023-03-03T21:03:18;17.20;;;2.63;;
18259;SDS011;9256;52.236;5.712;2023-03-03T21:05:58;13.30;;;2.87;;
18259;SDS011;9256;52.236;5.712;2023-03-03T21:08:40;15.77;;;2.90;;
18259;SDS011;9256;52.236;5.712;2023-03-03T21:11:08;17.00;;;2.60;;
18259;SDS011;9256;52.236;5.712;2023-03-03T21:13:36;19.57;;;2.57;;
18259;SDS011;9256;52.236;5.712;2023-03-03T21:16:10;23.83;;;2.00;;
18259;SDS011;9256;52.236;5.712;2023-03-03T21:18:41;16.53;;;1.60;;
18259;SDS011;9256;52.236;5.712;2023-03-03T21:21:20;14.27;;;2.43;;
18259;SDS011;9256;52.236;5.712;2023-03-03T21:23:48;26.63;;;3.47;;
18259;SDS011;9256;52.236;5.712;2023-03-03T21:26:29;16.70;;;1.70;;
18259;SDS011;9256;52.236;5.712;2023-03-03T21:29:14;15.57;;;1.63;;
18259;SDS011;9256;52.236;5.712;2023-03-03T21:31:44;21.27;;;2.87;;
18259;SDS011;9256;52.236;5.712;2023-03-03T21:34:20;15.13;;;2.70;;
18259;SDS011;9256;52.236;5.712;2023-03-03T21:36:49;18.80;;;2.33;;
18259;SDS011;9256;52.236;5.712;2023-03-03T21:39:18;19.37;;;2.93;;
18259;SDS011;9256;52.236;5.712;2023-03-03T21:41:52;21.17;;;3.35;;
18259;SDS011;9256;52.236;5.712;2023-03-03T21:47:16;17.70;;;2.00;;
18259;SDS011;9256;52.236;5.712;2023-03-03T21:49:44;16.00;;;2.20;;
18259;SDS011;9256;52.236;5.712;2023-03-03T21:52:13;20.73;;;3.07;;
18259;SDS011;9256;52.236;5.712;2023-03-03T21:54:41;20.60;;;1.80;;
18259;SDS011;9256;52.236;5.712;2023-03-03T21:57:08;15.57;;;1.60;;
18259;SDS011;9256;52.236;5.712;2023-03-03T21:59:35;27.07;;;2.80;;
18259;SDS011;9256;52.236;5.712;2023-03-03T22:02:02;17.13;;;2.10;;
18259;SDS011;9256;52.236;5.712;2023-03-03T22:04:31;16.17;;;2.20;;
18259;SDS011;9256;52.236;5.712;2023-03-03T22:06:58;12.07;;;1.23;;
18259;SDS011;9256;52.236;5.712;2023-03-03T22:09:25;15.63;;;1.90;;
18259;SDS011;9256;52.236;5.712;2023-03-03T22:11:52;14.40;;;2.10;;
18259;SDS011;9256;52.236;5.712;2023-03-03T22:14:19;13.00;;;2.07;;
18259;SDS011;9256;52.236;5.712;2023-03-03T22:16:46;17.40;;;1.50;;
18259;SDS011;9256;52.236;5.712;2023-03-03T22:19:13;19.50;;;1.90;;
18259;SDS011;9256;52.236;5.712;2023-03-03T22:21:41;15.00;;;1.30;;
18259;SDS011;9256;52.236;5.712;2023-03-03T22:24:08;8.87;;;1.70;;
18259;SDS011;9256;52.236;5.712;2023-03-03T22:26:35;13.63;;;1.60;;
18259;SDS011;9256;52.236;5.712;2023-03-03T22:29:02;15.73;;;2.03;;
18259;SDS011;9256;52.236;5.712;2023-03-03T22:31:30;13.83;;;2.10;;
18259;SDS011;9256;52.236;5.712;2023-03-03T22:33:57;17.30;;;2.07;;
18259;SDS011;9256;52.236;5.712;2023-03-03T22:36:24;12.37;;;1.30;;
18259;SDS011;9256;52.236;5.712;2023-03-03T22:38:53;16.53;;;1.40;;
18259;SDS011;9256;52.236;5.712;2023-03-03T22:41:19;15.97;;;1.50;;
18259;SDS011;9256;52.236;5.712;2023-03-03T22:43:47;11.80;;;1.10;;
18259;SDS011;9256;52.236;5.712;2023-03-03T22:46:14;10.53;;;1.23;;
18259;SDS011;9256;52.236;5.712;2023-03-03T22:48:40;12.97;;;1.40;;
18259;SDS011;9256;52.236;5.712;2023-03-03T22:51:07;13.23;;;1.80;;
18259;SDS011;9256;52.236;5.712;2023-03-03T22:53:34;13.30;;;1.37;;
18259;SDS011;9256;52.236;5.712;2023-03-03T22:56:03;12.57;;;1.63;;
18259;SDS011;9256;52.236;5.712;2023-03-03T22:58:30;15.83;;;1.83;;
18259;SDS011;9256;52.236;5.712;2023-03-03T23:00:57;18.60;;;1.50;;
18259;SDS011;9256;52.236;5.712;2023-03-03T23:03:25;16.23;;;1.63;;
18259;SDS011;9256;52.236;5.712;2023-03-03T23:05:52;8.67;;;1.50;;
18259;SDS011;9256;52.236;5.712;2023-03-03T23:08:19;16.17;;;1.77;;
18259;SDS011;9256;52.236;5.712;2023-03-03T23:10:46;15.95;;;1.85;;
18259;SDS011;9256;52.236;5.712;2023-03-03T23:13:14;24.43;;;1.70;;
18259;SDS011;9256;52.236;5.712;2023-03-03T23:15:41;11.17;;;1.23;;
18259;SDS011;9256;52.236;5.712;2023-03-03T23:18:08;19.27;;;1.57;;
18259;SDS011;9256;52.236;5.712;2023-03-03T23:20:35;18.33;;;1.70;;
18259;SDS011;9256;52.236;5.712;2023-03-03T23:23:02;16.27;;;1.57;;
18259;SDS011;9256;52.236;5.712;2023-03-03T23:25:29;11.00;;;2.00;;
18259;SDS011;9256;52.236;5.712;2023-03-03T23:27:56;16.63;;;1.50;;
18259;SDS011;9256;52.236;5.712;2023-03-03T23:30:25;12.37;;;1.30;;
18259;SDS011;9256;52.236;5.712;2023-03-03T23:32:52;17.53;;;1.40;;
18259;SDS011;9256;52.236;5.712;2023-03-03T23:35:19;12.70;;;1.90;;
18259;SDS011;9256;52.236;5.712;2023-03-03T23:37:46;11.53;;;1.30;;
18259;SDS011;9256;52.236;5.712;2023-03-03T23:40:14;13.93;;;1.60;;
18259;SDS011;9256;52.236;5.712;2023-03-03T23:42:41;20.73;;;1.57;;
18259;SDS011;9256;52.236;5.712;2023-03-03T23:45:09;12.43;;;1.33;;
18259;SDS011;9256;52.236;5.712;2023-03-03T23:47:38;15.90;;;1.23;;
18259;SDS011;9256;52.236;5.712;2023-03-03T23:50:06;17.87;;;1.40;;
18259;SDS011;9256;52.236;5.712;2023-03-03T23:52:33;15.87;;;1.30;;
18259;SDS011;9256;52.236;5.712;2023-03-03T23:55:00;12.23;;;1.23;;
18259;SDS011;9256;52.236;5.712;2023-03-03T23:57:27;10.83;;;1.30;;
18259;SDS011;9256;52.236;5.712;2023-03-03T23:59:54;9.60;;;1.20;;
